createdAt,value
2022-07-29T00:00:45.992Z,67.90
2022-07-29T00:03:14.785Z,68.20
2022-07-29T00:05:43.455Z,68.20
2022-07-29T00:08:12.746Z,68.20
2022-07-29T00:10:40.673Z,68.50
2022-07-29T00:13:08.817Z,68.60
2022-07-29T00:15:36.667Z,69.20
2022-07-29T00:18:05.175Z,69.30
2022-07-29T00:20:33.173Z,69.60
2022-07-29T00:23:01.049Z,69.80
2022-07-29T00:25:28.825Z,70.10
2022-07-29T00:27:56.650Z,70.00
2022-07-29T00:30:24.528Z,70.30
2022-07-29T00:32:52.296Z,70.40
2022-07-29T00:35:38.647Z,70.40
2022-07-29T00:38:06.467Z,70.30
2022-07-29T00:40:34.345Z,70.70
2022-07-29T00:43:02.981Z,70.60
2022-07-29T00:45:31.161Z,70.60
2022-07-29T00:47:58.988Z,70.60
2022-07-29T00:50:27.574Z,70.40
2022-07-29T00:52:55.463Z,70.90
2022-07-29T00:55:23.593Z,70.90
2022-07-29T00:57:52.647Z,71.00
2022-07-29T01:00:26.425Z,70.80
2022-07-29T01:02:54.350Z,71.10
2022-07-29T01:05:25.640Z,70.60
2022-07-29T01:08:16.522Z,71.10
2022-07-29T01:10:46.830Z,71.30
2022-07-29T01:13:15.819Z,71.20
2022-07-29T01:15:50.676Z,71.80
2022-07-29T01:18:32.798Z,71.60
2022-07-29T01:21:22.289Z,71.40
2022-07-29T01:24:27.191Z,71.20
2022-07-29T01:27:32.735Z,72.50
2022-07-29T01:30:05.198Z,72.20
2022-07-29T01:32:39.123Z,71.40
2022-07-29T01:35:22.072Z,71.60
2022-07-29T01:38:21.387Z,71.90
2022-07-29T01:41:06.147Z,73.10
2022-07-29T01:44:02.418Z,72.70
2022-07-29T01:46:38.139Z,73.70
2022-07-29T01:49:17.727Z,73.10
2022-07-29T01:52:08.682Z,73.30
2022-07-29T01:54:46.984Z,74.10
2022-07-29T01:57:21.313Z,73.10
2022-07-29T01:59:51.536Z,72.70
2022-07-29T02:02:20.874Z,72.70
2022-07-29T02:04:50.883Z,72.50
2022-07-29T02:07:22.901Z,72.70
2022-07-29T02:09:53.279Z,72.70
2022-07-29T02:12:23.047Z,72.70
2022-07-29T02:14:55.235Z,72.60
2022-07-29T02:17:30.270Z,72.70
2022-07-29T02:20:01.519Z,72.80
2022-07-29T02:22:34.603Z,72.50
2022-07-29T02:25:03.713Z,72.60
2022-07-29T02:27:34.520Z,72.60
2022-07-29T02:30:04.878Z,73.60
2022-07-29T02:32:36.490Z,73.00
2022-07-29T02:35:05.530Z,72.70
2022-07-29T02:37:34.609Z,72.60
2022-07-29T02:40:03.199Z,73.70
2022-07-29T02:42:34.838Z,73.00
2022-07-29T02:45:02.678Z,73.10
2022-07-29T02:47:46.099Z,73.50
2022-07-29T02:50:42.362Z,74.40
2022-07-29T02:53:38.279Z,74.90
2022-07-29T02:56:12.088Z,75.20
2022-07-29T02:58:46.117Z,74.50
2022-07-29T03:01:21.869Z,74.70
2022-07-29T03:03:54.025Z,74.70
2022-07-29T03:06:37.806Z,74.60
2022-07-29T03:09:12.961Z,74.70
2022-07-29T03:11:50.465Z,74.90
2022-07-29T03:14:21.032Z,75.50
2022-07-29T03:16:51.109Z,75.50
2022-07-29T03:19:21.237Z,75.40
2022-07-29T03:21:49.496Z,75.30
2022-07-29T03:24:36.464Z,75.10
2022-07-29T03:27:06.468Z,76.00
2022-07-29T03:29:34.797Z,75.30
2022-07-29T03:32:07.245Z,75.40
2022-07-29T03:34:37.857Z,75.80
2022-07-29T03:37:07.693Z,75.80
2022-07-29T03:39:42.425Z,75.90
2022-07-29T03:42:15.011Z,76.30
2022-07-29T03:44:46.632Z,76.20
2022-07-29T03:47:18.543Z,75.90
2022-07-29T03:49:52.874Z,75.90
2022-07-29T03:52:22.117Z,76.00
2022-07-29T03:54:50.261Z,75.70
2022-07-29T03:57:23.417Z,76.00
2022-07-29T03:59:53.258Z,76.10
2022-07-29T04:02:24.474Z,76.10
2022-07-29T04:04:55.179Z,76.10
2022-07-29T04:07:23.067Z,76.10
2022-07-29T04:09:50.816Z,76.20
2022-07-29T04:12:18.632Z,76.50
2022-07-29T04:14:46.800Z,76.60
2022-07-29T04:17:14.624Z,77.10
2022-07-29T04:19:42.366Z,77.50
2022-07-29T04:22:10.175Z,77.60
2022-07-29T04:24:37.988Z,77.50
2022-07-29T08:39:19.530Z,66.80
2022-07-29T08:41:57.428Z,70.00
2022-07-29T08:44:30.968Z,68.90
2022-07-29T08:46:59.164Z,68.60
2022-07-29T08:49:27.031Z,67.30
2022-07-29T08:51:57.090Z,68.50
2022-07-29T08:54:25.865Z,64.30
2022-07-29T08:56:54.906Z,64.60
2022-07-29T08:59:26.182Z,64.50
2022-07-29T09:01:55.637Z,63.00
2022-07-29T09:04:28.353Z,62.00
2022-07-29T09:06:59.470Z,63.00
2022-07-29T09:09:27.965Z,60.70
2022-07-29T09:11:56.534Z,61.40
2022-07-29T09:14:24.569Z,60.40
2022-07-29T09:16:57.452Z,58.30
2022-07-29T09:19:32.793Z,58.40
2022-07-29T09:22:04.220Z,57.80
2022-07-29T09:24:47.773Z,58.50
2022-07-29T09:27:18.546Z,56.30
2022-07-29T09:29:46.352Z,56.50
2022-07-29T09:32:14.284Z,57.20
2022-07-29T09:34:42.092Z,56.70
2022-07-29T09:37:09.963Z,56.30
2022-07-29T09:39:46.718Z,54.40
2022-07-29T09:42:28.157Z,51.20
2022-07-29T09:44:56.026Z,51.40
2022-07-29T09:47:40.964Z,53.10
2022-07-29T09:50:09.279Z,53.60
2022-07-29T09:52:49.510Z,50.70
2022-07-29T09:55:19.957Z,52.00
2022-07-29T09:57:48.252Z,52.50
2022-07-29T10:00:22.789Z,54.10
2022-07-29T10:02:51.979Z,53.40
2022-07-29T10:05:25.370Z,53.20
2022-07-29T10:07:58.618Z,51.50
2022-07-29T10:10:37.753Z,52.40
2022-07-29T10:13:16.088Z,51.90
2022-07-29T10:15:46.924Z,52.00
2022-07-29T10:18:18.315Z,49.10
2022-07-29T10:20:46.643Z,48.90
2022-07-29T10:23:15.014Z,48.20
2022-07-29T10:25:46.227Z,46.70
2022-07-29T10:28:16.731Z,48.40
2022-07-29T10:30:46.675Z,46.80
2022-07-29T10:33:39.926Z,46.40
2022-07-29T10:36:43.296Z,44.60
2022-07-29T10:39:55.198Z,44.80
2022-07-29T10:42:33.304Z,44.30
2022-07-29T10:45:04.875Z,44.10
2022-07-29T10:47:35.243Z,43.80
2022-07-29T10:50:06.226Z,43.90
2022-07-29T10:52:54.628Z,43.30
2022-07-29T10:55:39.412Z,41.50
2022-07-29T10:58:24.520Z,42.40
2022-07-29T11:00:55.001Z,43.00
2022-07-29T11:03:49.300Z,43.60
2022-07-29T11:06:26.193Z,42.70
2022-07-29T11:09:34.827Z,41.60
2022-07-29T11:12:03.704Z,41.00
2022-07-29T11:15:02.675Z,42.80
2022-07-29T11:17:46.931Z,40.80
2022-07-29T11:20:49.891Z,41.90
2022-07-29T11:23:33.951Z,40.30
2022-07-29T11:26:14.800Z,39.80
2022-07-29T11:28:55.632Z,40.20
2022-07-29T11:31:45.039Z,40.30
2022-07-29T11:34:33.331Z,39.90
2022-07-29T11:37:12.483Z,39.20
2022-07-29T11:39:53.773Z,39.60
2022-07-29T11:42:30.455Z,37.60
2022-07-29T11:45:41.158Z,39.00
2022-07-29T11:48:05.271Z,39.00
2022-07-29T11:50:48.354Z,40.10
2022-07-29T11:53:17.246Z,41.40
2022-07-29T11:55:51.527Z,41.60
2022-07-29T11:58:24.975Z,40.90
2022-07-29T12:00:55.654Z,40.80
2022-07-29T12:03:33.613Z,41.50
2022-07-29T12:06:24.405Z,40.80
2022-07-29T12:08:52.313Z,41.00
2022-07-29T12:11:23.380Z,42.40
2022-07-29T12:13:52.783Z,42.70
2022-07-29T12:16:26.005Z,43.30
2022-07-29T12:19:03.779Z,43.70
2022-07-29T12:21:56.912Z,44.10
2022-07-29T12:24:27.617Z,43.60
2022-07-29T12:27:00.105Z,44.30
2022-07-29T12:29:34.929Z,44.20
2022-07-29T12:32:14.737Z,44.40
2022-07-29T12:34:47.799Z,44.70
2022-07-29T12:37:15.895Z,45.30
2022-07-29T12:39:43.880Z,45.20
2022-07-29T12:42:18.535Z,45.20
2022-07-29T12:44:51.645Z,44.20
2022-07-29T12:47:21.610Z,43.30
2022-07-29T12:49:51.199Z,43.70
2022-07-29T12:52:33.459Z,43.60
2022-07-29T12:55:02.193Z,43.40
2022-07-29T12:57:30.272Z,42.90
2022-07-29T13:00:06.472Z,42.50
2022-07-29T13:02:35.419Z,42.30
2022-07-29T13:05:07.586Z,43.00
2022-07-29T13:07:55.511Z,43.50
2022-07-29T13:10:26.195Z,44.60
2022-07-29T13:13:13.208Z,46.20
2022-07-29T13:15:44.349Z,46.80
2022-07-29T13:18:37.283Z,46.10
2022-07-29T13:21:14.886Z,45.10
2022-07-29T13:23:43.609Z,44.30
2022-07-29T13:26:12.962Z,43.70
2022-07-29T13:28:41.024Z,43.40
2022-07-29T13:31:12.507Z,42.70
2022-07-29T13:33:40.421Z,41.60
2022-07-29T13:36:09.165Z,40.80
2022-07-29T13:38:36.936Z,41.50
2022-07-29T13:41:05.134Z,41.70
2022-07-29T13:43:33.577Z,41.60
2022-07-29T13:46:01.473Z,41.50
2022-07-29T13:48:29.379Z,42.00
2022-07-29T13:50:58.053Z,42.60
2022-07-29T13:53:26.855Z,43.70
2022-07-29T13:55:56.161Z,43.80
2022-07-29T13:58:24.010Z,44.80
2022-07-29T14:00:51.971Z,45.60
2022-07-29T14:03:20.106Z,45.30
2022-07-29T14:05:48.170Z,45.50
2022-07-29T14:08:16.220Z,45.70
2022-07-29T14:10:44.181Z,44.50
2022-07-29T14:13:21.830Z,44.10
2022-07-29T14:15:53.958Z,44.30
2022-07-29T14:18:21.740Z,44.40
2022-07-29T14:20:49.734Z,44.50
2022-07-29T14:23:18.176Z,44.20
2022-07-29T14:25:49.387Z,43.20
2022-07-29T14:28:17.835Z,40.70
2022-07-29T14:30:45.704Z,39.70
2022-07-29T14:33:17.897Z,39.40
2022-07-29T14:35:47.457Z,36.60
2022-07-29T14:38:16.506Z,37.00
2022-07-29T14:40:44.642Z,34.70
2022-07-29T14:43:13.155Z,35.30
2022-07-29T14:45:42.011Z,34.50
2022-07-29T14:48:09.971Z,34.80
2022-07-29T14:50:37.935Z,34.20
2022-07-29T14:53:06.158Z,34.10
2022-07-29T14:55:34.003Z,34.40
2022-07-29T14:58:09.679Z,33.70
2022-07-29T15:00:38.913Z,32.50
2022-07-29T15:03:06.870Z,32.90
2022-07-29T15:05:39.912Z,33.00
2022-07-29T15:08:09.158Z,33.50
2022-07-29T15:10:37.416Z,31.80
2022-07-29T15:13:05.285Z,33.10
2022-07-29T15:15:33.123Z,33.00
2022-07-29T15:18:00.927Z,32.60
2022-07-29T15:20:28.728Z,33.10
2022-07-29T15:22:57.220Z,33.40
2022-07-29T15:25:28.227Z,32.30
2022-07-29T15:28:01.110Z,32.90
2022-07-29T15:30:33.650Z,32.90
2022-07-29T15:33:04.765Z,32.70
2022-07-29T15:35:33.245Z,32.80
2022-07-29T15:38:08.200Z,33.20
2022-07-29T15:40:38.179Z,33.70
2022-07-29T15:43:06.859Z,34.30
2022-07-29T15:45:42.673Z,33.80
2022-07-29T15:48:13.215Z,33.60
2022-07-29T15:50:42.903Z,34.20
2022-07-29T15:53:15.380Z,34.50
2022-07-29T15:55:43.127Z,34.30
2022-07-29T15:58:12.403Z,34.20
2022-07-29T16:00:40.147Z,34.60
2022-07-29T16:03:08.480Z,34.50
2022-07-29T16:05:36.266Z,35.00
2022-07-29T16:08:05.718Z,33.70
2022-07-29T16:10:33.677Z,33.80
2022-07-29T16:13:01.836Z,33.80
2022-07-29T16:15:29.598Z,34.00
2022-07-29T16:17:57.487Z,34.10
2022-07-29T16:20:25.509Z,33.20
2022-07-29T16:22:54.321Z,33.60
2022-07-29T16:25:29.588Z,34.00
2022-07-29T16:28:06.763Z,33.70
2022-07-29T16:30:35.810Z,33.20
2022-07-29T16:33:08.201Z,34.10
2022-07-29T16:35:40.146Z,33.40
2022-07-29T16:38:08.132Z,33.90
2022-07-29T16:40:35.943Z,33.20
2022-07-29T16:43:03.709Z,33.60
2022-07-29T16:45:32.635Z,33.30
2022-07-29T16:48:15.116Z,32.60
2022-07-29T16:50:46.283Z,33.70
2022-07-29T16:53:14.084Z,32.90
2022-07-29T16:55:42.072Z,33.00
2022-07-29T16:58:11.211Z,33.30
2022-07-29T17:00:39.704Z,32.80
2022-07-29T17:03:07.579Z,32.90
2022-07-29T17:05:52.701Z,33.10
2022-07-29T17:08:22.888Z,33.00
2022-07-29T17:10:50.874Z,32.90
2022-07-29T17:13:18.707Z,33.10
2022-07-29T17:15:46.547Z,33.00
2022-07-29T17:18:14.324Z,32.90
2022-07-29T17:20:42.729Z,32.60
2022-07-29T17:23:12.396Z,32.50
2022-07-29T17:25:40.716Z,32.40
2022-07-29T17:28:08.506Z,32.40
2022-07-29T17:30:36.284Z,32.00
2022-07-29T17:33:04.148Z,31.90
2022-07-29T17:35:50.502Z,32.70
2022-07-29T17:38:18.322Z,32.30
2022-07-29T17:40:46.092Z,32.50
2022-07-29T17:43:13.955Z,31.80
